NFTL/HPA METAR and TAF weather

Enter ICAO airport designator
Station Type Date Time Source
NFTL METAR 2021/08/05 04:00 UTC NOAA

NFTL 050400Z 12007KT 9999 FEW017 24/13 Q1013 RMK DRY AIR 53%


Station Type Date Time Source
NFTL Decoded METAR 2021/08/05 04:00 UTC NOAA

Haapai, Tonga (NFTL) 19-48S 174-21W 3M
Aug 05, 2021 - 12:00 AM EDT / 2021.08.05 0400 UTC
Wind: from the ESE (120 degrees) at 8 MPH (7 KT):0
Visibility: greater than 7 mile(s):0
Sky conditions: mostly clear
Temperature: 75 F (24 C)
Dew Point: 55 F (13 C)
Relative Humidity: 50%
Pressure (altimeter): 29.91 in. Hg (1013 hPa)
ob: NFTL 050400Z 12007KT 9999 FEW017 24/13 Q1013 RMK DRY AIR 53%
cycle: 4

Station Type Date Time Source
NFTL TAF 2018/02/21 17:36 UTC NOAA

TAF NFTL 211605Z 2117/2208 12010KT 9999 SCT018

Example: see airport list